sensor_id;sensor_type;location;lat;lon;timestamp;temperature;humidity
19025;DHT22;9645;51.448;6.260;2023-06-04T00:02:17;12.40;99.90
19025;DHT22;9645;51.448;6.260;2023-06-04T00:04:44;12.40;99.90
19025;DHT22;9645;51.448;6.260;2023-06-04T00:07:11;12.40;99.90
19025;DHT22;9645;51.448;6.260;2023-06-04T00:09:38;13.30;99.90
19025;DHT22;9645;51.448;6.260;2023-06-04T00:12:06;12.30;99.90
19025;DHT22;9645;51.448;6.260;2023-06-04T00:14:34;12.20;99.90
19025;DHT22;9645;51.448;6.260;2023-06-04T00:17:02;12.20;99.90
19025;DHT22;9645;51.448;6.260;2023-06-04T00:19:30;12.10;99.90
19025;DHT22;9645;51.448;6.260;2023-06-04T00:21:59;12.20;99.90
19025;DHT22;9645;51.448;6.260;2023-06-04T00:24:26;12.20;99.90
19025;DHT22;9645;51.448;6.260;2023-06-04T00:27:01;12.20;99.90
19025;DHT22;9645;51.448;6.260;2023-06-04T00:29:32;12.90;99.90
19025;DHT22;9645;51.448;6.260;2023-06-04T00:31:59;12.10;99.90
19025;DHT22;9645;51.448;6.260;2023-06-04T00:36:54;12.00;99.90
19025;DHT22;9645;51.448;6.260;2023-06-04T00:39:21;11.90;99.90
19025;DHT22;9645;51.448;6.260;2023-06-04T00:44:15;11.80;99.90
19025;DHT22;9645;51.448;6.260;2023-06-04T00:46:43;11.70;99.90
19025;DHT22;9645;51.448;6.260;2023-06-04T00:51:40;11.70;99.90
19025;DHT22;9645;51.448;6.260;2023-06-04T00:54:08;9.40;99.90
19025;DHT22;9645;51.448;6.260;2023-06-04T00:56:36;11.60;99.90
19025;DHT22;9645;51.448;6.260;2023-06-04T00:59:04;11.50;99.90
19025;DHT22;9645;51.448;6.260;2023-06-04T01:01:39;11.50;99.90
19025;DHT22;9645;51.448;6.260;2023-06-04T01:04:16;11.50;99.90
19025;DHT22;9645;51.448;6.260;2023-06-04T01:06:49;11.40;99.90
19025;DHT22;9645;51.448;6.260;2023-06-04T01:09:18;11.40;99.90
19025;DHT22;9645;51.448;6.260;2023-06-04T01:16:45;11.30;99.90
19025;DHT22;9645;51.448;6.260;2023-06-04T01:19:27;11.20;99.90
19025;DHT22;9645;51.448;6.260;2023-06-04T01:22:05;11.20;99.90
19025;DHT22;9645;51.448;6.260;2023-06-04T01:24:45;11.10;99.90
19025;DHT22;9645;51.448;6.260;2023-06-04T01:29:45;11.10;99.90
19025;DHT22;9645;51.448;6.260;2023-06-04T01:32:15;11.10;99.90
19025;DHT22;9645;51.448;6.260;2023-06-04T01:34:45;11.00;99.90
19025;DHT22;9645;51.448;6.260;2023-06-04T01:39:43;11.00;99.90
19025;DHT22;9645;51.448;6.260;2023-06-04T01:42:10;11.00;99.90
19025;DHT22;9645;51.448;6.260;2023-06-04T01:44:37;11.00;99.90
19025;DHT22;9645;51.448;6.260;2023-06-04T01:47:04;11.00;99.90
19025;DHT22;9645;51.448;6.260;2023-06-04T01:49:31;10.90;99.90
19025;DHT22;9645;51.448;6.260;2023-06-04T01:51:58;11.00;99.90
19025;DHT22;9645;51.448;6.260;2023-06-04T01:56:53;11.00;99.90
19025;DHT22;9645;51.448;6.260;2023-06-04T01:59:20;11.00;99.90
19025;DHT22;9645;51.448;6.260;2023-06-04T02:04:14;10.90;99.90
19025;DHT22;9645;51.448;6.260;2023-06-04T02:09:09;10.90;99.90
19025;DHT22;9645;51.448;6.260;2023-06-04T02:14:04;10.70;99.90
19025;DHT22;9645;51.448;6.260;2023-06-04T02:18:59;10.70;99.90
19025;DHT22;9645;51.448;6.260;2023-06-04T02:23:53;10.60;99.90
19025;DHT22;9645;51.448;6.260;2023-06-04T02:26:20;10.60;99.90
19025;DHT22;9645;51.448;6.260;2023-06-04T02:31:17;10.50;99.90
19025;DHT22;9645;51.448;6.260;2023-06-04T02:41:09;10.50;99.90
19025;DHT22;9645;51.448;6.260;2023-06-04T02:43:36;10.40;99.90
19025;DHT22;9645;51.448;6.260;2023-06-04T02:48:34;10.40;99.90
19025;DHT22;9645;51.448;6.260;2023-06-04T02:51:01;10.40;99.90
19025;DHT22;9645;51.448;6.260;2023-06-04T02:53:29;10.30;99.90
19025;DHT22;9645;51.448;6.260;2023-06-04T02:55:56;10.30;99.90
19025;DHT22;9645;51.448;6.260;2023-06-04T02:58:24;10.30;99.90
19025;DHT22;9645;51.448;6.260;2023-06-04T03:00:52;10.20;99.90
19025;DHT22;9645;51.448;6.260;2023-06-04T03:05:48;10.20;99.90
19025;DHT22;9645;51.448;6.260;2023-06-04T03:08:15;10.20;99.90
19025;DHT22;9645;51.448;6.260;2023-06-04T03:10:42;11.10;99.90
19025;DHT22;9645;51.448;6.260;2023-06-04T03:13:08;10.20;99.90
19025;DHT22;9645;51.448;6.260;2023-06-04T03:15:35;10.10;99.90
19025;DHT22;9645;51.448;6.260;2023-06-04T03:18:04;10.00;99.90
19025;DHT22;9645;51.448;6.260;2023-06-04T03:23:05;10.10;99.90
19025;DHT22;9645;51.448;6.260;2023-06-04T03:25:31;10.20;99.90
19025;DHT22;9645;51.448;6.260;2023-06-04T03:35:20;10.10;99.90
19025;DHT22;9645;51.448;6.260;2023-06-04T03:40:16;10.00;99.90
19025;DHT22;9645;51.448;6.260;2023-06-04T03:42:42;10.20;99.90
19025;DHT22;9645;51.448;6.260;2023-06-04T03:45:10;10.00;99.90
19025;DHT22;9645;51.448;6.260;2023-06-04T03:47:38;10.00;99.90
19025;DHT22;9645;51.448;6.260;2023-06-04T03:50:06;10.00;99.90
19025;DHT22;9645;51.448;6.260;2023-06-04T03:52:33;9.90;99.90
19025;DHT22;9645;51.448;6.260;2023-06-04T03:57:29;10.00;99.90
19025;DHT22;9645;51.448;6.260;2023-06-04T04:07:22;10.20;99.90
19025;DHT22;9645;51.448;6.260;2023-06-04T04:14:45;10.20;99.90
19025;DHT22;9645;51.448;6.260;2023-06-04T04:17:12;10.20;99.90
19025;DHT22;9645;51.448;6.260;2023-06-04T04:22:07;10.30;99.90
19025;DHT22;9645;51.448;6.260;2023-06-04T04:24:35;10.40;99.90
19025;DHT22;9645;51.448;6.260;2023-06-04T04:27:03;10.50;99.90
19025;DHT22;9645;51.448;6.260;2023-06-04T04:29:31;10.50;7.70
19025;DHT22;9645;51.448;6.260;2023-06-04T04:32:01;10.60;99.90
19025;DHT22;9645;51.448;6.260;2023-06-04T04:44:24;11.00;99.90
19025;DHT22;9645;51.448;6.260;2023-06-04T04:49:20;11.20;99.90
19025;DHT22;9645;51.448;6.260;2023-06-04T04:54:14;11.40;99.90
19025;DHT22;9645;51.448;6.260;2023-06-04T04:56:41;11.40;99.90
19025;DHT22;9645;51.448;6.260;2023-06-04T04:59:08;11.50;99.90
19025;DHT22;9645;51.448;6.260;2023-06-04T05:04:02;11.70;99.90
19025;DHT22;9645;51.448;6.260;2023-06-04T05:06:30;11.70;1.00
19025;DHT22;9645;51.448;6.260;2023-06-04T05:11:25;11.80;1.00
19025;DHT22;9645;51.448;6.260;2023-06-04T05:16:20;12.10;99.90
19025;DHT22;9645;51.448;6.260;2023-06-04T05:18:48;12.20;99.90
19025;DHT22;9645;51.448;6.260;2023-06-04T05:23:45;12.40;99.90
19025;DHT22;9645;51.448;6.260;2023-06-04T05:26:14;12.50;99.90
19025;DHT22;9645;51.448;6.260;2023-06-04T05:28:41;12.50;75.90
19025;DHT22;9645;51.448;6.260;2023-06-04T05:33:39;12.80;99.90
19025;DHT22;9645;51.448;6.260;2023-06-04T05:41:02;13.10;99.90
19025;DHT22;9645;51.448;6.260;2023-06-04T05:43:29;13.20;99.90
19025;DHT22;9645;51.448;6.260;2023-06-04T05:45:56;13.40;1.00
19025;DHT22;9645;51.448;6.260;2023-06-04T05:53:17;13.60;1.00
19025;DHT22;9645;51.448;6.260;2023-06-04T05:55:44;14.00;99.90
19025;DHT22;9645;51.448;6.260;2023-06-04T05:58:13;14.20;1.00
19025;DHT22;9645;51.448;6.260;2023-06-04T06:00:40;14.30;1.00
19025;DHT22;9645;51.448;6.260;2023-06-04T06:03:08;14.40;99.90
19025;DHT22;9645;51.448;6.260;2023-06-04T06:08:04;14.90;9.90
19025;DHT22;9645;51.448;6.260;2023-06-04T06:15:28;15.40;1.00
19025;DHT22;9645;51.448;6.260;2023-06-04T06:20:23;15.60;99.90
19025;DHT22;9645;51.448;6.260;2023-06-04T06:22:50;15.80;1.00
19025;DHT22;9645;51.448;6.260;2023-06-04T06:25:18;15.90;1.00
19025;DHT22;9645;51.448;6.260;2023-06-04T06:27:47;16.10;99.90
19025;DHT22;9645;51.448;6.260;2023-06-04T06:32:46;16.40;99.90
19025;DHT22;9645;51.448;6.260;2023-06-04T06:35:14;16.50;99.90
19025;DHT22;9645;51.448;6.260;2023-06-04T06:37:41;16.70;99.90
19025;DHT22;9645;51.448;6.260;2023-06-04T06:40:09;16.80;99.90
19025;DHT22;9645;51.448;6.260;2023-06-04T06:42:36;17.00;99.90
19025;DHT22;9645;51.448;6.260;2023-06-04T06:45:04;17.00;99.90
19025;DHT22;9645;51.448;6.260;2023-06-04T06:47:31;17.00;99.90
19025;DHT22;9645;51.448;6.260;2023-06-04T06:49:59;17.10;99.90
19025;DHT22;9645;51.448;6.260;2023-06-04T06:54:53;17.40;99.90
19025;DHT22;9645;51.448;6.260;2023-06-04T06:57:20;17.60;99.90
19025;DHT22;9645;51.448;6.260;2023-06-04T06:59:47;17.70;99.90
19025;DHT22;9645;51.448;6.260;2023-06-04T07:04:45;18.10;99.90
19025;DHT22;9645;51.448;6.260;2023-06-04T07:07:13;18.30;99.90
19025;DHT22;9645;51.448;6.260;2023-06-04T07:09:40;18.20;99.90
19025;DHT22;9645;51.448;6.260;2023-06-04T07:12:07;18.40;99.90
19025;DHT22;9645;51.448;6.260;2023-06-04T07:14:34;18.60;99.90
19025;DHT22;9645;51.448;6.260;2023-06-04T07:17:01;18.80;99.90
19025;DHT22;9645;51.448;6.260;2023-06-04T07:19:28;18.90;99.90
19025;DHT22;9645;51.448;6.260;2023-06-04T07:21:55;19.00;99.90
19025;DHT22;9645;51.448;6.260;2023-06-04T07:24:23;19.30;99.90
19025;DHT22;9645;51.448;6.260;2023-06-04T07:29:17;19.40;99.90
19025;DHT22;9645;51.448;6.260;2023-06-04T07:31:44;19.60;99.90
19025;DHT22;9645;51.448;6.260;2023-06-04T07:34:11;19.80;99.90
19025;DHT22;9645;51.448;6.260;2023-06-04T07:36:38;20.00;99.90
19025;DHT22;9645;51.448;6.260;2023-06-04T07:39:05;20.40;99.90
19025;DHT22;9645;51.448;6.260;2023-06-04T07:41:33;20.40;99.90
19025;DHT22;9645;51.448;6.260;2023-06-04T07:44:00;20.50;99.90
19025;DHT22;9645;51.448;6.260;2023-06-04T07:48:55;20.60;99.90
19025;DHT22;9645;51.448;6.260;2023-06-04T07:51:21;20.70;99.90
19025;DHT22;9645;51.448;6.260;2023-06-04T07:58:45;21.40;99.90
19025;DHT22;9645;51.448;6.260;2023-06-04T08:01:12;21.40;99.90
19025;DHT22;9645;51.448;6.260;2023-06-04T08:03:40;21.60;99.90
19025;DHT22;9645;51.448;6.260;2023-06-04T08:06:07;21.80;99.90
19025;DHT22;9645;51.448;6.260;2023-06-04T08:08:34;21.80;99.90
19025;DHT22;9645;51.448;6.260;2023-06-04T08:11:01;22.00;99.90
19025;DHT22;9645;51.448;6.260;2023-06-04T08:13:28;22.20;99.90
19025;DHT22;9645;51.448;6.260;2023-06-04T08:15:56;22.30;99.90
19025;DHT22;9645;51.448;6.260;2023-06-04T08:18:23;22.30;99.90
19025;DHT22;9645;51.448;6.260;2023-06-04T08:20:50;22.50;99.90
19025;DHT22;9645;51.448;6.260;2023-06-04T08:23:17;22.70;99.90
19025;DHT22;9645;51.448;6.260;2023-06-04T08:25:44;23.10;99.90
19025;DHT22;9645;51.448;6.260;2023-06-04T08:28:13;23.20;99.90
19025;DHT22;9645;51.448;6.260;2023-06-04T08:30:41;22.20;99.90
19025;DHT22;9645;51.448;6.260;2023-06-04T08:33:11;23.10;99.90
19025;DHT22;9645;51.448;6.260;2023-06-04T08:35:38;23.40;99.90
19025;DHT22;9645;51.448;6.260;2023-06-04T08:38:05;23.50;99.90
19025;DHT22;9645;51.448;6.260;2023-06-04T08:40:31;23.50;99.90
19025;DHT22;9645;51.448;6.260;2023-06-04T08:43:01;23.70;99.90
19025;DHT22;9645;51.448;6.260;2023-06-04T08:45:28;23.90;99.90
19025;DHT22;9645;51.448;6.260;2023-06-04T08:48:00;24.00;99.90
19025;DHT22;9645;51.448;6.260;2023-06-04T08:50:29;24.00;99.90
19025;DHT22;9645;51.448;6.260;2023-06-04T08:52:57;24.00;99.90
19025;DHT22;9645;51.448;6.260;2023-06-04T08:55:24;24.20;99.90
19025;DHT22;9645;51.448;6.260;2023-06-04T08:57:53;24.20;99.90
19025;DHT22;9645;51.448;6.260;2023-06-04T09:00:20;24.30;99.90
19025;DHT22;9645;51.448;6.260;2023-06-04T09:02:50;24.60;99.90
19025;DHT22;9645;51.448;6.260;2023-06-04T09:05:19;24.60;99.90
19025;DHT22;9645;51.448;6.260;2023-06-04T09:07:52;24.60;99.90
19025;DHT22;9645;51.448;6.260;2023-06-04T09:10:22;24.70;99.90
19025;DHT22;9645;51.448;6.260;2023-06-04T09:12:51;24.80;99.90
19025;DHT22;9645;51.448;6.260;2023-06-04T09:15:18;24.80;99.90
19025;DHT22;9645;51.448;6.260;2023-06-04T09:17:45;24.90;99.90
19025;DHT22;9645;51.448;6.260;2023-06-04T09:20:20;25.10;99.90
19025;DHT22;9645;51.448;6.260;2023-06-04T09:22:50;25.30;99.90
19025;DHT22;9645;51.448;6.260;2023-06-04T09:25:22;25.10;99.90
19025;DHT22;9645;51.448;6.260;2023-06-04T09:27:51;25.80;99.90
19025;DHT22;9645;51.448;6.260;2023-06-04T09:30:21;25.00;1.00
19025;DHT22;9645;51.448;6.260;2023-06-04T09:32:52;25.00;1.00
19025;DHT22;9645;51.448;6.260;2023-06-04T09:35:27;25.40;1.00
19025;DHT22;9645;51.448;6.260;2023-06-04T09:37:56;25.80;1.00
19025;DHT22;9645;51.448;6.260;2023-06-04T09:40:23;25.70;1.00
19025;DHT22;9645;51.448;6.260;2023-06-04T09:42:51;25.70;1.00
19025;DHT22;9645;51.448;6.260;2023-06-04T09:45:27;25.40;1.00
19025;DHT22;9645;51.448;6.260;2023-06-04T09:47:54;25.30;1.00
19025;DHT22;9645;51.448;6.260;2023-06-04T09:50:25;25.30;1.00
19025;DHT22;9645;51.448;6.260;2023-06-04T09:52:52;25.80;1.00
19025;DHT22;9645;51.448;6.260;2023-06-04T09:55:21;25.90;1.00
19025;DHT22;9645;51.448;6.260;2023-06-04T09:57:49;26.10;1.00
19025;DHT22;9645;51.448;6.260;2023-06-04T11:19:24;28.10;1.00
19025;DHT22;9645;51.448;6.260;2023-06-04T11:21:53;28.30;1.00
19025;DHT22;9645;51.448;6.260;2023-06-04T11:24:20;27.70;1.00
19025;DHT22;9645;51.448;6.260;2023-06-04T11:26:47;27.50;1.00
19025;DHT22;9645;51.448;6.260;2023-06-04T11:29:14;27.70;1.00
19025;DHT22;9645;51.448;6.260;2023-06-04T11:31:42;27.90;1.00
19025;DHT22;9645;51.448;6.260;2023-06-04T11:34:09;28.00;1.00
19025;DHT22;9645;51.448;6.260;2023-06-04T11:36:38;27.90;1.00
19025;DHT22;9645;51.448;6.260;2023-06-04T11:39:06;27.90;1.00
19025;DHT22;9645;51.448;6.260;2023-06-04T11:41:35;27.80;1.00
19025;DHT22;9645;51.448;6.260;2023-06-04T11:44:03;27.80;1.00
19025;DHT22;9645;51.448;6.260;2023-06-04T11:46:32;27.90;1.00
19025;DHT22;9645;51.448;6.260;2023-06-04T11:48:59;27.90;1.00
19025;DHT22;9645;51.448;6.260;2023-06-04T11:51:27;27.90;1.00
19025;DHT22;9645;51.448;6.260;2023-06-04T11:53:54;27.70;1.00
19025;DHT22;9645;51.448;6.260;2023-06-04T11:56:24;27.50;1.00
19025;DHT22;9645;51.448;6.260;2023-06-04T11:58:52;27.20;1.00
19025;DHT22;9645;51.448;6.260;2023-06-04T12:01:20;27.20;1.00
19025;DHT22;9645;51.448;6.260;2023-06-04T12:03:48;27.40;1.00
19025;DHT22;9645;51.448;6.260;2023-06-04T12:06:17;27.70;1.00
19025;DHT22;9645;51.448;6.260;2023-06-04T12:08:45;27.60;1.00
19025;DHT22;9645;51.448;6.260;2023-06-04T12:11:25;27.60;1.00
19025;DHT22;9645;51.448;6.260;2023-06-04T12:13:53;27.50;1.00
19025;DHT22;9645;51.448;6.260;2023-06-04T12:16:20;27.80;1.00
19025;DHT22;9645;51.448;6.260;2023-06-04T12:18:48;28.40;1.00
19025;DHT22;9645;51.448;6.260;2023-06-04T12:21:23;28.50;1.00
19025;DHT22;9645;51.448;6.260;2023-06-04T12:23:53;28.60;1.00
19025;DHT22;9645;51.448;6.260;2023-06-04T12:26:23;28.80;1.00
19025;DHT22;9645;51.448;6.260;2023-06-04T12:29:01;29.00;1.00
19025;DHT22;9645;51.448;6.260;2023-06-04T12:31:28;28.80;1.00
19025;DHT22;9645;51.448;6.260;2023-06-04T12:33:58;29.10;1.00
19025;DHT22;9645;51.448;6.260;2023-06-04T12:36:26;29.10;1.00
19025;DHT22;9645;51.448;6.260;2023-06-04T12:38:58;28.90;1.00
19025;DHT22;9645;51.448;6.260;2023-06-04T12:41:27;28.80;1.00
19025;DHT22;9645;51.448;6.260;2023-06-04T12:43:54;28.60;1.00
19025;DHT22;9645;51.448;6.260;2023-06-04T12:46:21;28.40;1.00
19025;DHT22;9645;51.448;6.260;2023-06-04T12:48:49;27.90;1.00
19025;DHT22;9645;51.448;6.260;2023-06-04T12:51:16;27.70;1.00
19025;DHT22;9645;51.448;6.260;2023-06-04T12:53:44;27.70;1.00
19025;DHT22;9645;51.448;6.260;2023-06-04T12:56:11;27.90;1.00
19025;DHT22;9645;51.448;6.260;2023-06-04T12:58:40;27.90;1.00
19025;DHT22;9645;51.448;6.260;2023-06-04T13:01:08;27.90;1.00
19025;DHT22;9645;51.448;6.260;2023-06-04T13:03:37;28.20;1.00
19025;DHT22;9645;51.448;6.260;2023-06-04T13:06:04;28.50;1.00
19025;DHT22;9645;51.448;6.260;2023-06-04T13:08:32;28.80;1.00
19025;DHT22;9645;51.448;6.260;2023-06-04T13:10:59;28.80;1.00
19025;DHT22;9645;51.448;6.260;2023-06-04T13:13:27;28.80;1.00
19025;DHT22;9645;51.448;6.260;2023-06-04T13:15:58;25.70;1.00
19025;DHT22;9645;51.448;6.260;2023-06-04T13:18:26;28.40;1.00
19025;DHT22;9645;51.448;6.260;2023-06-04T13:20:53;28.30;1.00
19025;DHT22;9645;51.448;6.260;2023-06-04T13:23:20;28.00;1.00
19025;DHT22;9645;51.448;6.260;2023-06-04T13:25:47;28.00;1.00
19025;DHT22;9645;51.448;6.260;2023-06-04T13:28:14;28.00;1.00
19025;DHT22;9645;51.448;6.260;2023-06-04T13:30:41;27.70;1.00
19025;DHT22;9645;51.448;6.260;2023-06-04T13:33:09;27.80;1.00
19025;DHT22;9645;51.448;6.260;2023-06-04T13:35:36;27.80;1.00
19025;DHT22;9645;51.448;6.260;2023-06-04T13:38:05;27.90;1.00
19025;DHT22;9645;51.448;6.260;2023-06-04T13:40:33;27.80;1.00
19025;DHT22;9645;51.448;6.260;2023-06-04T13:43:01;28.00;1.00
19025;DHT22;9645;51.448;6.260;2023-06-04T13:45:28;27.80;1.00
19025;DHT22;9645;51.448;6.260;2023-06-04T13:50:29;27.80;1.00
19025;DHT22;9645;51.448;6.260;2023-06-04T13:52:56;27.80;1.00
19025;DHT22;9645;51.448;6.260;2023-06-04T13:55:23;27.50;1.00
19025;DHT22;9645;51.448;6.260;2023-06-04T13:57:50;27.50;1.00
19025;DHT22;9645;51.448;6.260;2023-06-04T14:00:17;27.60;1.00
19025;DHT22;9645;51.448;6.260;2023-06-04T14:02:44;27.50;1.00
19025;DHT22;9645;51.448;6.260;2023-06-04T14:05:11;27.70;1.00
19025;DHT22;9645;51.448;6.260;2023-06-04T14:07:40;27.70;1.00
19025;DHT22;9645;51.448;6.260;2023-06-04T14:10:09;27.60;1.00
19025;DHT22;9645;51.448;6.260;2023-06-04T14:12:38;27.60;1.00
19025;DHT22;9645;51.448;6.260;2023-06-04T14:15:06;27.50;1.00
19025;DHT22;9645;51.448;6.260;2023-06-04T14:17:33;27.60;1.00
19025;DHT22;9645;51.448;6.260;2023-06-04T14:20:01;27.60;1.00
19025;DHT22;9645;51.448;6.260;2023-06-04T14:22:32;27.50;1.00
19025;DHT22;9645;51.448;6.260;2023-06-04T14:25:01;27.20;1.00
19025;DHT22;9645;51.448;6.260;2023-06-04T14:27:28;27.00;1.00
19025;DHT22;9645;51.448;6.260;2023-06-04T14:29:55;27.00;1.00
19025;DHT22;9645;51.448;6.260;2023-06-04T14:32:24;26.90;1.00
19025;DHT22;9645;51.448;6.260;2023-06-04T14:34:51;27.00;1.00
19025;DHT22;9645;51.448;6.260;2023-06-04T14:37:18;26.80;1.00
19025;DHT22;9645;51.448;6.260;2023-06-04T14:39:46;26.90;1.00
19025;DHT22;9645;51.448;6.260;2023-06-04T14:42:15;27.10;1.00
19025;DHT22;9645;51.448;6.260;2023-06-04T14:44:42;27.40;1.00
19025;DHT22;9645;51.448;6.260;2023-06-04T14:47:10;27.40;1.00
19025;DHT22;9645;51.448;6.260;2023-06-04T14:49:38;27.30;1.00
19025;DHT22;9645;51.448;6.260;2023-06-04T14:52:05;27.00;1.00
19025;DHT22;9645;51.448;6.260;2023-06-04T14:54:32;27.10;1.00
19025;DHT22;9645;51.448;6.260;2023-06-04T14:56:59;26.90;1.00
19025;DHT22;9645;51.448;6.260;2023-06-04T14:59:28;26.90;1.00
19025;DHT22;9645;51.448;6.260;2023-06-04T15:01:55;26.90;1.00
19025;DHT22;9645;51.448;6.260;2023-06-04T15:04:22;26.90;1.00
19025;DHT22;9645;51.448;6.260;2023-06-04T15:06:49;26.90;1.00
19025;DHT22;9645;51.448;6.260;2023-06-04T15:09:16;27.00;1.00
19025;DHT22;9645;51.448;6.260;2023-06-04T15:11:43;27.00;1.00
19025;DHT22;9645;51.448;6.260;2023-06-04T15:14:10;26.90;1.00
19025;DHT22;9645;51.448;6.260;2023-06-04T15:16:39;26.70;1.00
19025;DHT22;9645;51.448;6.260;2023-06-04T15:19:06;26.80;1.00
19025;DHT22;9645;51.448;6.260;2023-06-04T15:21:33;28.80;1.00
19025;DHT22;9645;51.448;6.260;2023-06-04T15:24:00;27.00;1.00
19025;DHT22;9645;51.448;6.260;2023-06-04T15:26:28;27.00;1.00
19025;DHT22;9645;51.448;6.260;2023-06-04T15:28:55;26.80;1.00
19025;DHT22;9645;51.448;6.260;2023-06-04T15:31:22;26.80;1.00
19025;DHT22;9645;51.448;6.260;2023-06-04T15:33:51;26.70;1.00
19025;DHT22;9645;51.448;6.260;2023-06-04T15:36:18;26.60;1.00
19025;DHT22;9645;51.448;6.260;2023-06-04T15:38:44;26.60;1.00
19025;DHT22;9645;51.448;6.260;2023-06-04T15:41:11;26.50;1.00
19025;DHT22;9645;51.448;6.260;2023-06-04T15:43:38;26.60;1.00
19025;DHT22;9645;51.448;6.260;2023-06-04T15:46:05;26.50;1.00
19025;DHT22;9645;51.448;6.260;2023-06-04T15:48:32;26.30;1.00
19025;DHT22;9645;51.448;6.260;2023-06-04T15:51:01;26.20;1.00
19025;DHT22;9645;51.448;6.260;2023-06-04T15:53:28;26.20;1.00
19025;DHT22;9645;51.448;6.260;2023-06-04T15:55:56;26.40;1.00
19025;DHT22;9645;51.448;6.260;2023-06-04T15:58:23;26.40;1.00
19025;DHT22;9645;51.448;6.260;2023-06-04T16:00:51;26.50;1.00
19025;DHT22;9645;51.448;6.260;2023-06-04T16:03:18;26.40;1.00
19025;DHT22;9645;51.448;6.260;2023-06-04T16:05:46;26.40;1.00
19025;DHT22;9645;51.448;6.260;2023-06-04T16:08:14;26.50;1.00
19025;DHT22;9645;51.448;6.260;2023-06-04T16:10:42;26.40;1.00
19025;DHT22;9645;51.448;6.260;2023-06-04T16:13:10;26.30;1.00
19025;DHT22;9645;51.448;6.260;2023-06-04T16:15:37;26.10;1.00
19025;DHT22;9645;51.448;6.260;2023-06-04T16:18:04;25.90;1.00
19025;DHT22;9645;51.448;6.260;2023-06-04T16:20:31;25.90;1.00
19025;DHT22;9645;51.448;6.260;2023-06-04T16:22:58;26.00;1.00
19025;DHT22;9645;51.448;6.260;2023-06-04T16:25:27;26.20;1.00
19025;DHT22;9645;51.448;6.260;2023-06-04T16:27:55;26.20;1.00
19025;DHT22;9645;51.448;6.260;2023-06-04T16:30:29;26.10;1.00
19025;DHT22;9645;51.448;6.260;2023-06-04T16:33:08;25.90;1.00
19025;DHT22;9645;51.448;6.260;2023-06-04T16:35:36;25.90;1.00
19025;DHT22;9645;51.448;6.260;2023-06-04T16:38:03;25.70;1.00
19025;DHT22;9645;51.448;6.260;2023-06-04T16:40:34;25.70;1.00
19025;DHT22;9645;51.448;6.260;2023-06-04T16:43:01;25.70;1.00
19025;DHT22;9645;51.448;6.260;2023-06-04T16:45:28;25.50;1.00
19025;DHT22;9645;51.448;6.260;2023-06-04T16:47:56;25.40;1.00
19025;DHT22;9645;51.448;6.260;2023-06-04T16:50:23;25.30;1.00
19025;DHT22;9645;51.448;6.260;2023-06-04T16:52:50;25.20;1.00
19025;DHT22;9645;51.448;6.260;2023-06-04T16:55:17;25.20;1.00
19025;DHT22;9645;51.448;6.260;2023-06-04T16:57:46;25.20;1.00
19025;DHT22;9645;51.448;6.260;2023-06-04T17:00:13;25.10;1.00
19025;DHT22;9645;51.448;6.260;2023-06-04T17:05:08;25.30;1.00
19025;DHT22;9645;51.448;6.260;2023-06-04T17:07:37;25.10;1.00
19025;DHT22;9645;51.448;6.260;2023-06-04T17:10:05;25.10;1.00
19025;DHT22;9645;51.448;6.260;2023-06-04T17:12:33;25.10;1.00
19025;DHT22;9645;51.448;6.260;2023-06-04T17:15:04;25.00;1.00
19025;DHT22;9645;51.448;6.260;2023-06-04T17:17:31;25.00;1.00
19025;DHT22;9645;51.448;6.260;2023-06-04T17:19:58;24.80;1.00
19025;DHT22;9645;51.448;6.260;2023-06-04T17:22:26;24.80;1.00
19025;DHT22;9645;51.448;6.260;2023-06-04T17:24:53;24.70;1.00
19025;DHT22;9645;51.448;6.260;2023-06-04T17:27:20;24.60;1.00
19025;DHT22;9645;51.448;6.260;2023-06-04T17:29:47;24.60;1.00
19025;DHT22;9645;51.448;6.260;2023-06-04T17:32:15;24.60;1.00
19025;DHT22;9645;51.448;6.260;2023-06-04T17:34:42;24.60;1.00
19025;DHT22;9645;51.448;6.260;2023-06-04T17:37:09;24.40;1.00
19025;DHT22;9645;51.448;6.260;2023-06-04T17:39:36;24.50;1.00
19025;DHT22;9645;51.448;6.260;2023-06-04T17:42:04;24.50;1.00
19025;DHT22;9645;51.448;6.260;2023-06-04T17:44:31;24.50;1.00
19025;DHT22;9645;51.448;6.260;2023-06-04T17:46:58;24.50;1.00
19025;DHT22;9645;51.448;6.260;2023-06-04T17:49:30;24.30;1.00
19025;DHT22;9645;51.448;6.260;2023-06-04T17:51:58;24.30;1.00
19025;DHT22;9645;51.448;6.260;2023-06-04T17:54:25;24.10;1.00
19025;DHT22;9645;51.448;6.260;2023-06-04T17:56:52;24.00;1.00
19025;DHT22;9645;51.448;6.260;2023-06-04T17:59:19;23.90;1.00
19025;DHT22;9645;51.448;6.260;2023-06-04T18:01:46;23.80;1.00
19025;DHT22;9645;51.448;6.260;2023-06-04T18:04:13;23.70;1.00
19025;DHT22;9645;51.448;6.260;2023-06-04T18:06:41;23.70;1.00
19025;DHT22;9645;51.448;6.260;2023-06-04T18:09:08;23.60;1.00
19025;DHT22;9645;51.448;6.260;2023-06-04T18:11:35;23.60;1.00
19025;DHT22;9645;51.448;6.260;2023-06-04T18:14:02;23.40;1.00
19025;DHT22;9645;51.448;6.260;2023-06-04T18:16:30;23.30;1.00
19025;DHT22;9645;51.448;6.260;2023-06-04T18:18:57;23.20;1.00
19025;DHT22;9645;51.448;6.260;2023-06-04T18:21:25;23.10;1.00
19025;DHT22;9645;51.448;6.260;2023-06-04T18:23:53;23.00;1.00
19025;DHT22;9645;51.448;6.260;2023-06-04T18:26:22;22.90;1.00
19025;DHT22;9645;51.448;6.260;2023-06-04T18:28:49;22.80;1.00
19025;DHT22;9645;51.448;6.260;2023-06-04T18:31:16;22.70;1.00
19025;DHT22;9645;51.448;6.260;2023-06-04T18:33:50;22.60;1.00
19025;DHT22;9645;51.448;6.260;2023-06-04T18:36:17;22.60;1.00
19025;DHT22;9645;51.448;6.260;2023-06-04T18:38:44;22.00;1.00
19025;DHT22;9645;51.448;6.260;2023-06-04T18:41:13;22.40;1.00
19025;DHT22;9645;51.448;6.260;2023-06-04T18:43:41;22.30;1.00
19025;DHT22;9645;51.448;6.260;2023-06-04T18:46:08;22.10;1.00
19025;DHT22;9645;51.448;6.260;2023-06-04T18:48:35;22.10;1.00
19025;DHT22;9645;51.448;6.260;2023-06-04T18:51:02;21.80;1.00
19025;DHT22;9645;51.448;6.260;2023-06-04T18:53:29;21.90;1.00
19025;DHT22;9645;51.448;6.260;2023-06-04T18:55:56;21.70;1.00
19025;DHT22;9645;51.448;6.260;2023-06-04T18:58:25;21.60;1.00
19025;DHT22;9645;51.448;6.260;2023-06-04T19:00:52;21.40;1.00
19025;DHT22;9645;51.448;6.260;2023-06-04T19:03:19;21.40;1.00
19025;DHT22;9645;51.448;6.260;2023-06-04T19:05:48;21.20;1.00
19025;DHT22;9645;51.448;6.260;2023-06-04T19:08:16;21.10;1.00
19025;DHT22;9645;51.448;6.260;2023-06-04T19:10:43;21.10;1.00
19025;DHT22;9645;51.448;6.260;2023-06-04T19:13:11;21.00;1.00
19025;DHT22;9645;51.448;6.260;2023-06-04T19:15:40;20.90;1.00
19025;DHT22;9645;51.448;6.260;2023-06-04T19:18:07;20.80;1.00
19025;DHT22;9645;51.448;6.260;2023-06-04T19:20:34;20.70;1.00
19025;DHT22;9645;51.448;6.260;2023-06-04T19:23:01;20.70;1.00
19025;DHT22;9645;51.448;6.260;2023-06-04T19:25:28;20.60;1.00
19025;DHT22;9645;51.448;6.260;2023-06-04T19:27:55;20.50;1.00
19025;DHT22;9645;51.448;6.260;2023-06-04T19:30:22;20.40;1.00
19025;DHT22;9645;51.448;6.260;2023-06-04T19:32:51;20.30;1.00
19025;DHT22;9645;51.448;6.260;2023-06-04T19:35:18;20.10;1.00
19025;DHT22;9645;51.448;6.260;2023-06-04T19:37:45;20.00;1.00
19025;DHT22;9645;51.448;6.260;2023-06-04T19:40:15;19.90;1.00
19025;DHT22;9645;51.448;6.260;2023-06-04T19:42:43;19.80;1.00
19025;DHT22;9645;51.448;6.260;2023-06-04T19:45:11;19.60;1.00